Patterson, Iowa
Current Conditions -  °F | °C
As of 8:54 AM on Thursday 30 Oct 2014 (Local Time) from KDSM Reporting Station
Few Clouds Few Clouds  
Wind Chill: 39°   Ceiling: Unl
Heat Index: 45°   Visibility: 10mi
Dew Point: 36°   Wind: 12mph
Humidity: 71%   Direction: 150°SSE
Pressure: 30.03"   Gusts: NA
Location:  41.35°N, 93.88°W
Report Text: KDSM 301354Z 15010KT 10SM FEW120 FEW180 07/02 A3003 RMK AO2 SLP172 T00720022
Loading
Personal Weather Stations






























Interactive Weather Map
Tropical Storm Tracking
New forecast layout! Learn more

10-Day Weather Forecast

Advertisements
Track Severe Weather on mobile